Weather History for Zapata, TX

Change the Weather History Date:

Monday, March 24, 2014

  Actual Average (KLRD) Record (KLRD)
Temperature  
Mean Temperature 63 °F 70 °F  
Max Temperature 72 °F 82 °F 103 °F (1954)
Min Temperature 54 °F 59 °F 38 °F (1974)
Degree Days  
Heating Degree Days 2 1  
Month to date heating degree days 62  
Since 1 July heating degree days 906  
Cooling Degree Days 0 7  
Month to date cooling degree days 120  
Year to date cooling degree days 205  
Growing Degree Days 13 (Base 50)    
Moisture  
Dew Point 49 °F    
Average Humidity 67    
Maximum Humidity 89    
Minimum Humidity 45    
Precipitation  
Precipitation 0.00 in 0.04 in 1.42 in (1940)
Month to date precipitation 0.91  
Year to date precipitation 2.75  
Sea Level Pressure  
Sea Level Pressure 30.10 in    
Wind  
Wind Speed 5 mph (NNE)    
Max Wind Speed 8 mph    
Max Gust Speed -    
Visibility 10 miles    
Events      
T = Trace of Precipitation, MM = Missing Value Source: NWS Daily Summary

Daily Weather History Graph

Daily Weather History Graph

Search for Another Location

Airport:

Trip Planner

Search our weather history database for the weather conditions in past years. The results will help you decide how hot, cold, wet, or windy it might be!

Date:

Astronomy

Mar. 24, 2014 Rise Set
Actual Time 7:36 AM CDT 7:50 PM CDT
Civil Twilight 7:13 AM CDT 8:13 PM CDT
Nautical Twilight 6:46 AM CDT 8:40 PM CDT
Astronomical Twilight 6:18 AM CDT 9:08 PM CDT
Moon 2:38 AM CDT (3/24) 1:46 PM CDT (3/24)
Length of Visible Light 13h 00m
Length of Day
12h 13m
Last Quarter, 43% of the Moon is Illuminated
Mar 24
Last Quarter
Mar 30
New
Apr 7
First Quarter
Apr 15
Full
Apr 22
Last Quarter

Hourly Weather History & Observations

Time (CDT) Temp. Dew Point Humidity Pressure Visibility Wind Dir Wind Speed Gust Speed Precip Events Conditions
12:15 AM 58.3 °F 49.1 °F 71% 30.20 in 10.0 mi NNE 6.9 mph - N/A   Overcast
12:30 AM 58.3 °F 49.3 °F 72% 30.20 in 10.0 mi North 6.9 mph - N/A   Overcast
12:55 AM 58.1 °F 49.5 °F 73% 30.20 in 10.0 mi North 4.6 mph - N/A   Overcast
1:15 AM 57.4 °F 50.0 °F 76% 30.20 in 10.0 mi North 5.8 mph - N/A   Overcast
1:35 AM 56.8 °F 50.0 °F 78% 30.20 in 10.0 mi North 4.6 mph - N/A   Overcast
1:55 AM 56.8 °F 50.2 °F 78% 30.18 in 10.0 mi North 5.8 mph - N/A   Overcast
2:15 AM 56.8 °F 50.2 °F 78% 30.18 in 10.0 mi NNE 3.5 mph - N/A   Overcast
2:35 AM 56.3 °F 50.5 °F 81% 30.18 in 10.0 mi NNE 4.6 mph - N/A   Overcast
2:55 AM 55.8 °F 50.9 °F 84% 30.17 in 10.0 mi NNE 4.6 mph - N/A   Overcast
3:15 AM 55.6 °F 50.9 °F 84% 30.17 in 10.0 mi North 4.6 mph - N/A   Overcast
3:35 AM 55.4 °F 50.9 °F 85% 30.16 in 10.0 mi North 5.8 mph - N/A   Overcast
3:55 AM 55.4 °F 51.1 °F 85% 30.16 in 10.0 mi North 4.6 mph - N/A   Overcast
4:15 AM 55.2 °F 50.9 °F 85% 30.15 in 10.0 mi North 3.5 mph - N/A   Overcast
4:35 AM 55.4 °F 50.4 °F 83% 30.15 in 10.0 mi North 4.6 mph - N/A   Overcast
4:55 AM 55.2 °F 50.5 °F 84% 30.14 in 10.0 mi Calm Calm - N/A   Overcast
5:15 AM 54.9 °F 50.0 °F 84% 30.12 in 10.0 mi NNE 3.5 mph - N/A   Overcast
5:35 AM 54.9 °F 49.3 °F 81% 30.12 in 10.0 mi NNE 5.8 mph - N/A   Overcast
5:55 AM 54.9 °F 49.3 °F 81% 30.10 in 10.0 mi NNE 3.5 mph - N/A   Overcast
6:15 AM 55.0 °F 49.3 °F 81% 30.10 in 10.0 mi NNE 3.5 mph - N/A   Overcast
6:35 AM 55.0 °F 48.4 °F 78% 30.12 in 10.0 mi North 5.8 mph - N/A   Overcast
6:55 AM 54.9 °F 46.8 °F 74% 30.12 in 10.0 mi North 4.6 mph - N/A   Overcast
7:15 AM 54.5 °F 45.1 °F 71% 30.12 in 10.0 mi North 4.6 mph - N/A   Overcast
7:35 AM 54.5 °F 45.0 °F 70% 30.13 in 10.0 mi North 3.5 mph - N/A   Overcast
7:55 AM 54.7 °F 45.1 °F 70% 30.13 in 10.0 mi North - - N/A   Overcast
8:15 AM 54.7 °F 45.1 °F 70% 30.13 in 10.0 mi NNW 6.9 mph - N/A   Overcast
8:35 AM 54.5 °F 45.0 °F 70% 30.13 in 10.0 mi NNW 8.1 mph - N/A   Overcast
8:55 AM 54.5 °F 45.9 °F 73% 30.15 in 10.0 mi North 5.8 mph - N/A   Overcast
9:15 AM 54.0 °F 46.0 °F 75% 30.15 in 10.0 mi North 6.9 mph - N/A   Overcast
9:35 AM 54.3 °F 46.0 °F 74% 30.16 in 10.0 mi NNE 5.8 mph - N/A   Overcast
9:55 AM 55.0 °F 46.8 °F 74% 30.16 in 10.0 mi NNW 3.5 mph - N/A   Overcast
10:15 AM 55.0 °F 46.6 °F 73% 30.16 in 10.0 mi North 4.6 mph - N/A   Overcast
10:35 AM 55.9 °F 46.6 °F 71% 30.16 in 10.0 mi NNE 4.6 mph - N/A   Overcast
10:55 AM 57.0 °F 46.6 °F 68% 30.15 in 10.0 mi NNE 4.6 mph - N/A   Overcast
11:15 AM 58.3 °F 46.6 °F 65% 30.15 in 10.0 mi North 3.5 mph - N/A   Overcast
11:35 AM 59.5 °F 47.3 °F 64% 30.14 in 10.0 mi NNE 5.8 mph - N/A   Overcast
11:55 AM 61.7 °F 47.5 °F 60% 30.15 in 10.0 mi North 3.5 mph - N/A   Overcast
12:15 PM 62.4 °F 47.5 °F 58% 30.12 in 10.0 mi NNE 4.6 mph - N/A   Overcast
12:35 PM 64.0 °F 48.0 °F 56% 30.12 in 10.0 mi North 5.8 mph - N/A   Mostly Cloudy
12:55 PM 64.4 °F 48.2 °F 56% 30.11 in 10.0 mi NNE 3.5 mph - N/A   Mostly Cloudy
1:15 PM 64.6 °F 48.2 °F 55% 30.09 in 10.0 mi North 3.5 mph - N/A   Overcast
1:35 PM 65.1 °F 47.8 °F 54% 30.08 in 10.0 mi Calm Calm - N/A   Overcast
1:55 PM 65.5 °F 47.8 °F 53% 30.07 in 10.0 mi NW 4.6 mph - N/A   Overcast
2:15 PM 66.4 °F 48.0 °F 52% 30.07 in 10.0 mi North 8.1 mph - N/A   Overcast
2:35 PM 67.3 °F 48.4 °F 51% 30.05 in 10.0 mi NNW 6.9 mph - N/A   Overcast
2:55 PM 68.0 °F 48.4 °F 49% 30.05 in 10.0 mi Calm Calm - N/A   Overcast
3:15 PM 68.5 °F 48.6 °F 49% 30.03 in 10.0 mi NNW 5.8 mph - N/A   Overcast
3:35 PM 69.1 °F 48.7 °F 48% 30.02 in 10.0 mi NE 5.8 mph - N/A   Overcast
3:55 PM 68.9 °F 48.9 °F 49% 30.01 in 10.0 mi Calm Calm - N/A   Overcast
4:15 PM 71.1 °F 49.3 °F 46% 29.99 in 10.0 mi East 4.6 mph - N/A   Overcast
4:35 PM 70.5 °F 49.3 °F 47% 29.99 in 10.0 mi NE 4.6 mph - N/A   Scattered Clouds
4:55 PM 71.4 °F 49.6 °F 46% 29.99 in 10.0 mi Calm Calm - N/A   Clear
5:15 PM 71.6 °F 49.6 °F 46% 29.98 in 10.0 mi NW 3.5 mph - N/A   Clear
5:35 PM 72.3 °F 50.0 °F 45% 29.98 in 10.0 mi Calm Calm - N/A   Clear
5:55 PM 72.0 °F 49.8 °F 46% 29.98 in 10.0 mi WNW 3.5 mph - N/A   Clear
6:15 PM 71.6 °F 50.0 °F 46% 29.98 in 10.0 mi NE 5.8 mph - N/A   Clear
6:35 PM 71.6 °F 50.0 °F 46% 29.98 in 10.0 mi NNE 4.6 mph - N/A   Clear
6:55 PM 71.2 °F 49.8 °F 47% 29.99 in 10.0 mi NE 3.5 mph - N/A   Clear
7:15 PM 70.7 °F 50.0 °F 48% 29.99 in 10.0 mi Calm Calm - N/A   Clear
7:30 PM 69.8 °F 50.0 °F 49% 30.00 in 10.0 mi NE 3.5 mph - N/A   Clear
7:50 PM 68.0 °F 50.4 °F 53% 30.01 in 10.0 mi ENE 3.5 mph - N/A   Clear
8:15 PM 65.5 °F 51.4 °F 60% 30.02 in 10.0 mi East 8.1 mph - N/A   Clear
8:35 PM 64.0 °F 51.6 °F 64% 30.04 in 10.0 mi East 5.8 mph - N/A   Clear
8:55 PM 63.1 °F 51.6 °F 66% 30.05 in 10.0 mi East 5.8 mph - N/A   Clear
9:15 PM 61.7 °F 51.8 °F 70% 30.05 in 10.0 mi East 6.9 mph - N/A   Clear
9:35 PM 60.6 °F 51.8 °F 73% 30.06 in 10.0 mi East 8.1 mph - N/A   Clear
9:55 PM 59.9 °F 51.8 °F 75% 30.08 in 10.0 mi East 3.5 mph - N/A   Clear
10:15 PM 59.2 °F 52.0 °F 77% 30.10 in 10.0 mi East 4.6 mph - N/A   Clear
10:35 PM 58.3 °F 52.2 °F 80% 30.10 in 10.0 mi East 4.6 mph - N/A   Clear
10:55 PM 57.4 °F 52.0 °F 82% 30.10 in 10.0 mi ESE 3.5 mph - N/A   Clear
11:15 PM 56.3 °F 51.8 °F 85% 30.10 in 10.0 mi Calm Calm - N/A   Clear
11:35 PM 56.3 °F 52.0 °F 85% 30.11 in 10.0 mi Calm Calm - N/A   Clear
11:55 PM 55.4 °F 52.2 °F 89% 30.11 in 10.0 mi Calm Calm - N/A   Clear